CST,Max TemperatureF,Mean TemperatureF,Min TemperatureF,Max Dew PointF,MeanDew PointF,Min DewpointF,Max Humidity, Mean Humidity, Min Humidity, Max Sea Level PressureIn, Mean Sea Level PressureIn, Min Sea Level PressureIn, Max VisibilityMiles, Mean VisibilityMiles, Min VisibilityMiles, Max Wind SpeedMPH, Mean Wind SpeedMPH, Max Gust SpeedMPH,PrecipitationIn, CloudCover, Events, WindDirDegrees
2012-12-1,60,48,37,54,47,32,88,82,76,30.04,29.90,29.82,10,5,0,15,8,17,0.00,5,Fog,171
2012-12-2,53,50,48,48,46,45,88,83,82,30.04,29.96,29.87,2,1,0,12,4,,0.00,8,Fog-Rain,175
2012-12-3,71,58,46,59,50,36,88,73,55,30.03,29.83,29.70,10,8,0,26,14,32,0.00,3,Fog,222
2012-12-4,64,50,35,34,24,7,70,44,10,30.35,30.21,30.05,10,10,10,15,8,20,0.00,0,,304
2012-12-5,51,38,26,36,29,21,80,63,44,30.39,30.24,30.02,10,10,10,16,8,23,0.00,0,,124
2012-12-6,53,48,44,39,36,32,81,64,54,30.01,29.95,29.90,10,10,10,17,11,24,0.00,3,Rain,210
2012-12-7,44,42,39,37,35,32,87,76,70,29.99,29.94,29.87,10,10,5,13,6,,0.01,8,Rain,23
2012-12-8,39,32,26,34,30,21,87,80,75,30.03,29.98,29.94,10,8,4,15,4,,0.00,4,,81
2012-12-9,41,32,23,36,28,16,87,80,69,29.97,29.90,29.82,10,6,2,23,10,31,0.08,8,Rain,308
2012-12-10,32,24,17,18,14,9,80,67,51,30.01,29.98,29.95,10,10,10,20,13,29,0.00,4,,269
2012-12-11,44,30,17,21,17,10,73,58,34,30.10,30.01,29.94,10,10,10,16,9,21,0.00,2,,224
2012-12-12,51,40,28,21,15,0,69,43,12,30.16,30.11,30.06,10,10,10,23,12,29,0.00,0,,188
2012-12-13,53,42,32,21,18,16,64,42,22,30.12,30.09,30.05,10,10,10,21,14,25,0.00,0,,193
2012-12-14,55,42,30,39,28,21,81,57,35,30.12,29.98,29.76,10,10,10,18,9,24,0.00,3,Rain,161
2012-12-15,51,46,41,46,42,36,87,81,71,29.75,29.59,29.49,10,8,2,20,13,25,0.39,8,Rain,209
2012-12-16,41,37,33,36,32,28,87,81,75,29.82,29.75,29.68,10,6,3,15,8,21,0.00,8,,311
2012-12-17,41,36,30,30,28,27,87,77,61,29.79,29.74,29.68,10,7,2,9,4,,0.00,8,,267
2012-12-18,48,40,32,36,30,27,87,77,58,29.90,29.68,29.51,10,7,2,28,9,38,0.00,4,,248
2012-12-19,37,34,30,32,29,27,87,82,75,29.98,29.85,29.59,7,4,2,23,7,29,0.43,4,Rain-Snow,79
2012-12-20,35,26,17,30,22,10,87,79,69,30.09,29.74,29.45,10,5,0,38,26,52,0.19,6,Snow,326
2012-12-21,28,22,15,16,12,7,79,68,51,30.31,30.25,30.10,10,10,10,21,12,26,0.00,0,,291
2012-12-22,42,28,15,28,19,10,80,67,52,30.26,30.05,29.93,10,10,10,15,7,12,0.00,0,,191
2012-12-23,30,22,15,21,16,10,86,77,64,30.04,29.99,29.96,10,8,4,13,9,,0.00,0,,13
2012-12-24,23,18,14,18,14,9,86,79,68,30.22,30.06,29.96,10,7,1,18,10,25,0.00,6,Snow,324
2012-12-25,15,10,6,9,4,0,79,76,68,30.42,30.32,30.23,10,10,10,18,12,22,0.00,0,,355
2012-12-26,21,14,6,12,7,1,79,74,63,30.29,30.23,30.19,10,10,10,14,9,18,0.00,5,,342
2012-12-27,30,20,10,21,15,5,85,76,64,30.20,30.11,30.02,10,10,7,15,6,18,0.00,4,,91
2012-12-28,30,27,24,25,23,18,86,79,74,30.02,29.98,29.93,10,6,2,13,6,18,0.00,8,Snow,351
2012-12-29,26,20,14,18,14,9,86,77,64,30.25,30.17,30.02,10,8,2,20,12,24,0.00,4,Snow,275
2012-12-30,42,28,15,27,21,10,86,67,49,30.29,30.17,30.04,10,10,10,21,8,28,0.00,0,,199
2012-12-31,39,28,15,27,16,9,75,69,59,30.23,30.16,30.05,10,10,10,15,11,16,0.00,3,,335